Time;durP1;ratioP1;P1;durP2;ratioP2;P2;SDS_P1;SDS_P2;PMS_P1;PMS_P2;Temp;Humidity;BMP_temperature;BMP_pressure;BME280_temperature;BME280_humidity;BME280_pressure;Samples;Min_cycle;Max_cycle;Signal;HPM_P1;HPM_P2
2021/10/13 00:02:05;;;;;;;27.85;18.63;;;6.30;99.90;;;;;;5096770;28;20024;-79
2021/10/13 00:04:30;;;;;;;27.23;16.77;;;6.20;99.90;;;;;;5112417;28;20023;-79
2021/10/13 00:06:56;;;;;;;40.90;21.00;;;6.20;99.90;;;;;;5093497;28;20028;-79
2021/10/13 00:09:22;;;;;;;30.80;17.48;;;6.20;99.90;;;;;;5080258;28;20420;-79
2021/10/13 00:11:48;;;;;;;31.77;16.88;;;6.30;99.90;;;;;;5076472;28;20029;-78
2021/10/13 00:14:13;;;;;;;26.73;17.45;;;6.20;99.90;;;;;;5075077;28;20138;-78
2021/10/13 00:16:39;;;;;;;27.55;16.17;;;6.20;99.90;;;;;;5076248;28;20036;-78
2021/10/13 00:19:05;;;;;;;27.90;16.75;;;6.10;99.90;;;;;;5076935;28;20462;-78
2021/10/13 00:21:31;;;;;;;33.63;16.73;;;6.10;99.90;;;;;;5080045;28;20025;-78
2021/10/13 00:23:57;;;;;;;26.73;16.60;;;6.10;99.90;;;;;;5084000;28;20024;-78
2021/10/13 00:26:23;;;;;;;26.40;15.00;;;6.20;99.90;;;;;;5084296;28;20047;-78
2021/10/13 00:28:49;;;;;;;27.77;17.40;;;6.00;99.90;;;;;;5111670;28;20096;-78
2021/10/13 00:31:14;;;;;;;21.27;14.52;;;6.00;99.90;;;;;;5095218;28;20024;-78
2021/10/13 00:33:40;;;;;;;22.50;15.27;;;6.00;99.90;;;;;;5111932;28;20028;-78
2021/10/13 00:36:06;;;;;;;21.65;13.65;;;5.90;99.90;;;;;;5110096;28;20016;-78
2021/10/13 00:38:32;;;;;;;26.30;15.43;;;5.90;99.90;;;;;;5082313;28;20025;-78
2021/10/13 00:40:57;;;;;;;24.02;14.38;;;5.90;99.90;;;;;;5075855;28;20553;-78
2021/10/13 00:43:23;;;;;;;22.65;13.85;;;5.90;99.90;;;;;;5074502;28;20050;-78
2021/10/13 00:45:51;;;;;;;20.85;13.73;;;5.80;99.90;;;;;;5075640;28;20023;-78
2021/10/13 00:48:17;;;;;;;25.58;14.68;;;5.90;99.90;;;;;;5075728;28;20047;-78
2021/10/13 00:50:43;;;;;;;24.27;15.35;;;5.90;99.90;;;;;;5075404;28;20408;-78
2021/10/13 00:53:09;;;;;;;28.38;17.38;;;5.90;99.90;;;;;;5075599;28;20032;-78
2021/10/13 00:55:35;;;;;;;26.35;15.93;;;5.90;99.90;;;;;;5075627;28;20101;-78
2021/10/13 00:58:01;;;;;;;25.95;15.25;;;5.90;99.90;;;;;;5074788;28;20170;-78
2021/10/13 01:00:27;;;;;;;25.45;15.77;;;5.90;99.90;;;;;;5075518;28;20470;-78
2021/10/13 01:03:09;;;;;;;22.13;13.30;;;5.90;99.90;;;;;;5074189;28;20039;-78
2021/10/13 01:06:12;;;;;;;22.00;14.20;;;5.90;99.90;;;;;;5075498;28;20058;-78
2021/10/13 01:09:15;;;;;;;27.67;17.92;;;5.90;99.90;;;;;;5074846;28;20354;-78
2021/10/13 01:12:18;;;;;;;24.00;15.05;;;5.90;99.90;;;;;;5075347;28;20016;-78
2021/10/13 01:15:10;;;;;;;20.33;12.90;;;5.80;99.90;;;;;;5075216;28;20020;-78
2021/10/13 01:17:40;;;;;;;23.20;12.68;;;5.70;99.90;;;;;;5075162;28;20119;-78
2021/10/13 01:20:48;;;;;;;25.23;14.02;;;5.70;99.90;;;;;;5075128;28;20586;-78
2021/10/13 01:23:31;;;;;;;21.55;13.40;;;5.60;99.90;;;;;;5075004;28;20099;-78
2021/10/13 01:26:33;;;;;;;21.90;13.05;;;5.70;99.90;;;;;;5075790;28;20027;-78
2021/10/13 01:29:07;;;;;;;27.25;15.93;;;5.60;99.90;;;;;;5050773;28;20040;-78
2021/10/13 01:31:42;;;;;;;18.40;11.18;;;5.60;99.90;;;;;;5076454;28;20108;-78
2021/10/13 01:34:20;;;;;;;25.08;12.73;;;5.50;99.90;;;;;;5074780;28;20493;-78
2021/10/13 01:36:51;;;;;;;19.77;12.82;;;5.50;99.90;;;;;;5074599;28;20036;-78
2021/10/13 01:39:17;;;;;;;19.92;12.07;;;5.50;99.90;;;;;;5073263;28;20051;-78
2021/10/13 01:41:45;;;;;;;19.83;11.07;;;5.50;99.90;;;;;;5080188;28;20060;-78
2021/10/13 01:44:15;;;;;;;21.10;12.15;;;5.50;99.90;;;;;;5109900;28;20052;-78
2021/10/13 01:46:44;;;;;;;18.88;11.70;;;5.50;99.90;;;;;;5093103;28;20024;-78
2021/10/13 01:49:10;;;;;;;19.42;13.60;;;5.40;99.90;;;;;;5110520;28;20416;-78
2021/10/13 01:51:37;;;;;;;17.83;11.68;;;5.40;99.90;;;;;;5097989;28;20028;-78
2021/10/13 01:54:05;;;;;;;15.98;11.07;;;5.30;99.90;;;;;;5074452;28;20024;-78
2021/10/13 01:56:33;;;;;;;19.65;11.55;;;5.30;99.90;;;;;;5078684;28;20047;-78
2021/10/13 01:59:06;;;;;;;17.05;10.18;;;5.30;99.90;;;;;;5074155;28;20082;-78
2021/10/13 02:01:34;;;;;;;20.77;11.52;;;5.20;99.90;;;;;;5074416;28;20558;-78
2021/10/13 02:04:06;;;;;;;15.65;10.43;;;5.20;99.90;;;;;;5088560;28;20046;-78
2021/10/13 02:06:33;;;;;;;15.07;10.30;;;5.20;99.90;;;;;;5076581;28;20025;-78
2021/10/13 02:09:01;;;;;;;16.48;9.70;;;5.10;99.90;;;;;;5073922;28;20059;-79
2021/10/13 02:11:29;;;;;;;15.27;9.70;;;5.10;99.90;;;;;;5072994;28;20146;-79
2021/10/13 02:13:59;;;;;;;15.18;8.95;;;5.10;99.90;;;;;;5074027;28;20055;-79
2021/10/13 02:16:27;;;;;;;17.95;10.23;;;5.00;99.90;;;;;;5073605;28;20499;-79
2021/10/13 02:18:53;;;;;;;15.85;9.25;;;5.00;99.90;;;;;;5072756;28;20063;-79
2021/10/13 02:21:21;;;;;;;18.42;10.48;;;4.90;99.90;;;;;;5090794;28;20020;-79
2021/10/13 02:23:49;;;;;;;17.30;11.00;;;5.00;99.90;;;;;;5109746;28;20112;-78
2021/10/13 02:26:25;;;;;;;17.90;11.82;;;4.90;99.90;;;;;;5094142;28;20028;-78
2021/10/13 02:28:57;;;;;;;15.02;9.88;;;4.90;99.90;;;;;;5094011;28;20095;-79
2021/10/13 02:31:23;;;;;;;18.52;10.68;;;4.90;99.90;;;;;;5092813;28;20024;-79
2021/10/13 02:33:48;;;;;;;14.70;9.50;;;4.90;99.90;;;;;;5108576;28;20432;-78
2021/10/13 02:36:14;;;;;;;13.98;9.85;;;4.80;99.90;;;;;;5076741;28;20023;-79
2021/10/13 02:38:40;;;;;;;14.57;9.25;;;4.70;99.90;;;;;;5074558;28;20033;-79
2021/10/13 02:41:05;;;;;;;15.07;9.30;;;4.80;99.90;;;;;;5090987;28;20069;-79
2021/10/13 02:43:31;;;;;;;14.07;9.55;;;4.70;99.90;;;;;;5092589;28;20020;-79
2021/10/13 02:46:07;;;;;;;17.20;11.05;;;4.70;99.90;;;;;;5081291;28;20016;-79
2021/10/13 02:48:35;;;;;;;17.50;11.20;;;4.70;99.90;;;;;;5079549;28;20020;-79
2021/10/13 02:51:23;;;;;;;19.40;11.93;;;4.70;99.90;;;;;;5072103;28;20024;-79
2021/10/13 02:54:11;;;;;;;23.13;13.20;;;4.80;99.90;;;;;;5073294;28;20166;-79
2021/10/13 02:56:43;;;;;;;20.42;11.30;;;4.80;99.90;;;;;;5074637;28;20386;-79
2021/10/13 02:59:28;;;;;;;19.95;14.05;;;4.80;99.90;;;;;;5073647;28;20111;-79
2021/10/13 03:02:01;;;;;;;19.55;12.20;;;4.80;99.90;;;;;;5071082;28;20032;-79
2021/10/13 03:04:34;;;;;;;18.42;11.25;;;4.80;99.90;;;;;;5073274;28;20021;-79
2021/10/13 03:07:13;;;;;;;14.77;9.95;;;4.70;99.90;;;;;;5088743;28;20481;-78
2021/10/13 03:09:44;;;;;;;14.77;8.77;;;4.60;99.90;;;;;;5072332;28;20025;-79
2021/10/13 03:12:12;;;;;;;17.38;10.50;;;4.60;99.90;;;;;;5073137;28;20020;-79
2021/10/13 03:14:39;;;;;;;29.80;19.10;;;4.60;99.90;;;;;;5072991;28;20020;-79
2021/10/13 03:17:05;;;;;;;15.07;10.63;;;4.60;99.90;;;;;;5072871;28;20070;-79
2021/10/13 03:19:36;;;;;;;12.88;9.07;;;4.60;99.90;;;;;;5072464;28;20555;-79
2021/10/13 03:22:02;;;;;;;12.40;8.50;;;4.50;99.90;;;;;;5071689;28;20501;-79
2021/10/13 03:24:28;;;;;;;12.63;8.68;;;4.50;99.90;;;;;;5071714;28;20016;-79
2021/10/13 03:26:53;;;;;;;13.95;9.75;;;4.40;99.90;;;;;;5072187;28;20090;-79
2021/10/13 03:29:19;;;;;;;12.38;8.57;;;4.40;99.90;;;;;;5072848;28;20025;-79
2021/10/13 03:31:46;;;;;;;14.05;8.80;;;4.40;99.90;;;;;;5077268;28;20031;-79
2021/10/13 03:34:15;;;;;;;15.88;9.70;;;4.40;99.90;;;;;;5081158;28;20056;-79
2021/10/13 03:36:44;;;;;;;13.55;8.88;;;4.40;99.90;;;;;;5084840;28;20035;-79
2021/10/13 03:39:12;;;;;;;14.25;8.73;;;4.40;99.90;;;;;;5082653;28;20020;-79
2021/10/13 03:41:38;;;;;;;14.75;9.57;;;4.30;99.90;;;;;;5079958;28;20494;-79
2021/10/13 03:44:05;;;;;;;16.05;9.00;;;4.20;99.90;;;;;;5082587;28;20096;-79
2021/10/13 03:46:31;;;;;;;13.50;9.95;;;4.30;99.90;;;;;;5082177;28;20031;-79
2021/10/13 03:48:56;;;;;;;12.00;9.13;;;4.20;99.90;;;;;;5080630;28;20020;-79
2021/10/13 03:51:22;;;;;;;12.43;8.30;;;4.30;99.90;;;;;;5081851;28;20044;-79
2021/10/13 03:53:49;;;;;;;12.15;8.63;;;4.30;99.90;;;;;;5083382;28;20024;-79
2021/10/13 03:56:15;;;;;;;13.18;9.40;;;4.30;99.90;;;;;;5081394;28;20082;-79
2021/10/13 03:58:41;;;;;;;13.07;8.93;;;4.40;99.90;;;;;;5077421;28;20039;-79
2021/10/13 04:01:07;;;;;;;13.50;8.60;;;4.40;99.90;;;;;;5081481;28;20409;-79
2021/10/13 04:03:33;;;;;;;12.35;8.60;;;4.40;99.90;;;;;;5071231;28;20025;-79
2021/10/13 04:05:59;;;;;;;11.85;8.40;;;4.40;99.90;;;;;;5073350;28;20017;-79
2021/10/13 04:08:24;;;;;;;11.80;8.52;;;4.40;99.90;;;;;;5071292;28;20044;-79
2021/10/13 04:10:50;;;;;;;11.75;8.43;;;4.40;99.90;;;;;;5072455;28;20020;-78
2021/10/13 04:13:16;;;;;;;13.85;7.80;;;4.30;99.90;;;;;;5072504;28;20385;-78
2021/10/13 04:15:42;;;;;;;13.50;7.55;;;4.20;99.90;;;;;;5074131;28;20032;-79
2021/10/13 04:18:08;;;;;;;13.05;8.45;;;4.20;99.90;;;;;;5071039;28;20032;-78
2021/10/13 04:20:33;;;;;;;11.40;7.47;;;4.20;99.90;;;;;;5071127;28;20025;-78
2021/10/13 04:22:59;;;;;;;11.30;7.97;;;4.20;99.90;;;;;;5072315;28;20020;-78
2021/10/13 04:25:25;;;;;;;12.02;7.47;;;4.20;99.90;;;;;;5071803;28;20027;-78
2021/10/13 04:27:50;;;;;;;15.68;9.38;;;4.20;99.90;;;;;;5089449;28;20050;-78
2021/10/13 04:30:17;;;;;;;13.98;8.25;;;4.20;99.90;;;;;;5091232;28;20481;-78
2021/10/13 04:32:44;;;;;;;13.98;9.15;;;4.30;99.90;;;;;;5092464;28;20069;-78
2021/10/13 04:35:11;;;;;;;15.05;10.23;;;4.40;99.90;;;;;;5091123;28;20055;-78
2021/10/13 04:37:37;;;;;;;13.65;8.40;;;4.30;99.90;;;;;;5080862;28;20044;-78
2021/10/13 04:40:05;;;;;;;13.02;7.55;;;4.20;99.90;;;;;;5084369;28;20024;-78
2021/10/13 04:42:30;;;;;;;9.10;6.25;;;4.20;99.90;;;;;;5088655;28;20024;-78
2021/10/13 04:44:56;;;;;;;10.15;6.85;;;4.10;99.90;;;;;;5088372;28;20024;-78
2021/10/13 04:47:22;;;;;;;9.63;6.85;;;4.10;99.90;;;;;;5080044;28;20024;-78
2021/10/13 04:49:47;;;;;;;11.60;6.78;;;4.10;99.90;;;;;;5084828;28;20017;-78
2021/10/13 04:52:13;;;;;;;14.30;6.88;;;4.10;99.90;;;;;;5083693;28;20028;-78
2021/10/13 04:54:39;;;;;;;9.93;6.50;;;4.10;99.90;;;;;;5084943;28;20359;-79
2021/10/13 04:57:05;;;;;;;10.70;6.90;;;4.10;99.90;;;;;;5083486;28;20024;-79
2021/10/13 04:59:30;;;;;;;11.95;7.25;;;4.10;99.90;;;;;;5082909;28;20060;-78
2021/10/13 05:01:56;;;;;;;13.00;8.57;;;4.10;99.90;;;;;;5082143;28;20072;-79
2021/10/13 05:04:22;;;;;;;14.30;9.05;;;4.10;99.90;;;;;;5091948;28;20028;-79
2021/10/13 05:06:48;;;;;;;18.85;9.07;;;4.20;99.90;;;;;;5074954;28;20032;-79
2021/10/13 05:09:15;;;;;;;16.83;9.80;;;4.20;99.90;;;;;;5073990;28;20036;-78
2021/10/13 05:11:41;;;;;;;13.45;9.07;;;4.20;99.90;;;;;;5075107;28;20021;-78
2021/10/13 05:14:07;;;;;;;11.95;8.35;;;4.20;99.90;;;;;;5075125;28;20039;-78
2021/10/13 05:16:32;;;;;;;17.02;9.32;;;4.20;99.90;;;;;;5090075;28;20490;-78
2021/10/13 05:18:58;;;;;;;16.08;9.07;;;4.30;99.90;;;;;;5074916;28;20104;-79
2021/10/13 05:21:24;;;;;;;13.05;9.07;;;4.30;99.90;;;;;;5075083;28;20022;-79
2021/10/13 05:23:49;;;;;;;18.35;10.80;;;4.30;99.90;;;;;;5073943;28;20017;-79
2021/10/13 05:26:15;;;;;;;17.67;9.90;;;4.30;99.90;;;;;;5073815;28;20497;-79
2021/10/13 05:28:41;;;;;;;16.73;9.07;;;4.20;99.90;;;;;;5076509;28;20020;-80
2021/10/13 05:31:06;;;;;;;24.40;9.70;;;4.20;99.90;;;;;;5082273;28;20041;-80
2021/10/13 05:33:32;;;;;;;18.27;10.38;;;4.20;99.90;;;;;;5081355;28;20019;-80
2021/10/13 05:35:58;;;;;;;18.33;10.77;;;4.30;99.90;;;;;;5082176;28;20024;-80
2021/10/13 05:38:23;;;;;;;14.70;9.65;;;4.30;99.90;;;;;;5082192;28;20032;-80
2021/10/13 05:40:49;;;;;;;16.00;9.82;;;4.30;99.90;;;;;;5071274;28;20426;-79
2021/10/13 05:43:15;;;;;;;15.07;9.73;;;4.30;99.90;;;;;;5073166;28;20020;-79
2021/10/13 05:45:40;;;;;;;16.50;9.40;;;4.30;99.90;;;;;;5083148;28;20020;-79
2021/10/13 05:48:06;;;;;;;13.63;9.13;;;4.30;99.90;;;;;;5083666;28;20033;-80
2021/10/13 05:50:32;;;;;;;15.57;10.50;;;4.30;99.90;;;;;;5068854;28;20032;-79
2021/10/13 05:52:57;;;;;;;20.45;10.93;;;4.40;99.90;;;;;;5069663;28;20534;-79
2021/10/13 05:55:23;;;;;;;16.35;9.95;;;4.40;99.90;;;;;;5078681;28;20461;-80
2021/10/13 05:57:49;;;;;;;15.65;9.40;;;4.40;99.90;;;;;;5074930;28;20101;-79
2021/10/13 06:00:15;;;;;;;15.80;9.80;;;4.50;99.90;;;;;;5071876;28;20031;-79
2021/10/13 06:02:40;;;;;;;14.75;9.07;;;4.40;99.90;;;;;;5069170;28;20025;-79
2021/10/13 06:05:06;;;;;;;15.82;10.73;;;4.40;99.90;;;;;;5085474;28;20020;-80
2021/10/13 06:07:32;;;;;;;13.27;9.15;;;4.40;99.90;;;;;;5089900;28;20119;-80
2021/10/13 06:09:59;;;;;;;15.18;8.95;;;4.50;99.90;;;;;;5089189;28;20107;-80
2021/10/13 06:12:25;;;;;;;14.50;8.68;;;4.50;99.90;;;;;;5088184;28;20042;-79
2021/10/13 06:14:51;;;;;;;15.50;10.07;;;4.40;99.90;;;;;;5089515;28;20024;-80
2021/10/13 06:17:16;;;;;;;15.93;9.30;;;4.40;99.90;;;;;;5089701;28;20040;-80
2021/10/13 06:19:42;;;;;;;12.75;8.38;;;4.40;99.90;;;;;;5085549;28;20466;-80
2021/10/13 06:22:08;;;;;;;13.07;7.97;;;4.40;99.90;;;;;;5091674;28;20068;-80
2021/10/13 06:24:33;;;;;;;12.07;9.05;;;4.50;99.90;;;;;;5072158;28;20107;-80
2021/10/13 06:26:59;;;;;;;11.63;8.10;;;4.40;99.90;;;;;;5072130;28;20036;-80
2021/10/13 06:29:25;;;;;;;13.73;8.15;;;4.40;99.90;;;;;;5071892;28;20097;-80
2021/10/13 06:31:50;;;;;;;20.67;11.15;;;4.50;99.90;;;;;;5069314;28;20032;-80
2021/10/13 06:34:16;;;;;;;15.20;9.13;;;4.50;99.90;;;;;;5070067;28;20462;-80
2021/10/13 06:36:42;;;;;;;15.35;9.50;;;4.50;99.90;;;;;;5071244;28;20040;-80
2021/10/13 06:39:08;;;;;;;18.85;10.63;;;4.50;99.90;;;;;;5072043;28;20024;-80
2021/10/13 06:41:33;;;;;;;15.23;9.98;;;4.60;99.90;;;;;;5071224;28;20158;-80
2021/10/13 06:43:59;;;;;;;12.65;8.90;;;4.60;99.90;;;;;;5086850;28;20039;-80
2021/10/13 06:46:26;;;;;;;14.05;10.20;;;4.60;99.90;;;;;;5089761;28;20079;-80
2021/10/13 06:48:52;;;;;;;12.05;8.30;;;4.70;99.90;;;;;;5090935;28;20028;-80
2021/10/13 06:51:18;;;;;;;12.93;8.15;;;4.70;99.90;;;;;;5090696;28;20411;-80
2021/10/13 06:53:46;;;;;;;13.40;9.00;;;4.80;99.90;;;;;;5090525;28;20035;-79
2021/10/13 06:56:13;;;;;;;15.45;9.73;;;4.90;99.90;;;;;;5090523;28;20496;-79
2021/10/13 06:58:39;;;;;;;15.63;9.85;;;4.90;99.90;;;;;;5091373;28;20125;-80
2021/10/13 07:01:04;;;;;;;14.00;8.43;;;5.00;99.90;;;;;;5090417;28;20119;-80
2021/10/13 07:03:30;;;;;;;13.35;9.82;;;5.00;99.90;;;;;;5082587;28;20075;-80
2021/10/13 07:05:56;;;;;;;11.77;8.57;;;5.10;99.90;;;;;;5073704;28;20486;-80
2021/10/13 07:08:22;;;;;;;10.98;7.47;;;5.00;99.90;;;;;;5070493;28;20028;-80
2021/10/13 07:10:47;;;;;;;12.30;7.85;;;5.10;99.90;;;;;;5069430;28;20016;-80
2021/10/13 07:13:13;;;;;;;13.70;7.68;;;5.10;99.90;;;;;;5080390;28;20115;-82
2021/10/13 07:15:38;;;;;;;12.35;7.57;;;5.10;99.90;;;;;;5080854;28;20095;-81
2021/10/13 07:18:04;;;;;;;13.20;7.28;;;5.10;99.90;;;;;;5073837;28;20565;-79
2021/10/13 07:20:30;;;;;;;11.25;8.00;;;5.10;99.90;;;;;;5064772;28;20112;-80
2021/10/13 07:22:57;;;;;;;11.30;8.13;;;5.10;99.90;;;;;;5079551;28;20071;-80
2021/10/13 07:25:25;;;;;;;10.90;6.63;;;5.20;99.90;;;;;;5090588;28;20046;-80
2021/10/13 07:27:52;;;;;;;8.30;6.28;;;5.10;99.90;;;;;;5091170;28;20047;-79
2021/10/13 07:30:22;;;;;;;10.85;7.00;;;5.10;99.90;;;;;;5091043;28;20404;-80
2021/10/13 07:32:48;;;;;;;9.73;7.03;;;5.20;99.90;;;;;;5087104;28;20143;-80
2021/10/13 07:35:14;;;;;;;9.43;6.60;;;5.10;99.90;;;;;;5071019;28;20063;-79
2021/10/13 07:37:40;;;;;;;10.27;7.40;;;5.10;99.90;;;;;;5068686;28;20044;-80
2021/10/13 07:40:06;;;;;;;8.35;6.50;;;5.10;99.90;;;;;;5069872;28;20052;-79
2021/10/13 07:42:32;;;;;;;11.98;7.82;;;5.10;99.90;;;;;;5069747;28;20490;-79
2021/10/13 07:44:59;;;;;;;9.93;6.32;;;5.00;99.90;;;;;;5070255;28;20378;-79
2021/10/13 07:47:24;;;;;;;9.23;6.90;;;5.10;99.90;;;;;;5070975;28;20036;-79
2021/10/13 07:49:50;;;;;;;9.32;7.38;;;5.10;99.90;;;;;;5084866;28;20111;-79
2021/10/13 07:52:16;;;;;;;10.05;6.95;;;5.20;99.90;;;;;;5074230;28;20074;-78
2021/10/13 07:54:42;;;;;;;9.73;6.43;;;5.20;99.90;;;;;;5069669;28;20024;-79
2021/10/13 07:57:07;;;;;;;11.25;7.22;;;5.20;99.90;;;;;;5067930;28;20037;-78
2021/10/13 07:59:33;;;;;;;8.32;6.10;;;5.30;99.90;;;;;;5078329;28;20032;-78
2021/10/13 08:02:00;;;;;;;8.45;5.65;;;5.30;99.90;;;;;;5087457;28;20024;-78
2021/10/13 08:04:26;;;;;;;7.63;5.05;;;5.30;99.90;;;;;;5088919;28;20028;-78
2021/10/13 08:06:53;;;;;;;8.85;5.22;;;5.30;99.90;;;;;;5090627;28;20366;-78
2021/10/13 08:09:19;;;;;;;6.00;4.88;;;5.30;99.90;;;;;;5089582;28;20020;-79
2021/10/13 08:11:45;;;;;;;7.13;5.55;;;5.40;99.90;;;;;;5086918;28;20016;-79
2021/10/13 08:14:12;;;;;;;5.47;4.78;;;5.60;99.90;;;;;;5090415;28;20012;-79
2021/10/13 08:16:38;;;;;;;8.10;5.18;;;5.60;99.90;;;;;;5091545;28;20049;-79
2021/10/13 08:19:03;;;;;;;5.20;4.47;;;5.60;99.90;;;;;;5081814;28;20032;-79
2021/10/13 08:21:30;;;;;;;5.05;4.45;;;5.60;99.90;;;;;;5071936;28;20059;-79
2021/10/13 08:23:55;;;;;;;7.03;4.22;;;5.70;99.90;;;;;;5071104;28;20033;-79
2021/10/13 08:26:21;;;;;;;5.32;4.82;;;5.70;99.90;;;;;;5082626;28;20020;-79
2021/10/13 08:28:47;;;;;;;6.45;5.50;;;5.70;99.90;;;;;;5087131;28;20029;-80
2021/10/13 08:31:14;;;;;;;7.78;6.40;;;5.70;99.90;;;;;;5073834;28;20489;-78
2021/10/13 08:33:40;;;;;;;6.72;5.07;;;5.80;99.90;;;;;;5074713;28;20122;-79
2021/10/13 08:36:06;;;;;;;8.77;5.75;;;5.90;99.90;;;;;;5094738;28;20016;-79
2021/10/13 08:38:32;;;;;;;7.55;5.97;;;5.90;99.90;;;;;;5093562;28;20051;-78
2021/10/13 08:40:57;;;;;;;13.80;5.20;;;6.00;99.90;;;;;;5075876;28;20536;-79
2021/10/13 08:43:23;;;;;;;8.18;6.22;;;6.00;99.90;;;;;;5072679;28;20029;-78
2021/10/13 08:45:49;;;;;;;9.30;6.60;;;6.00;99.90;;;;;;5071474;28;20035;-79
2021/10/13 08:48:15;;;;;;;8.27;6.22;;;6.00;99.90;;;;;;5073956;28;20055;-79
2021/10/13 08:50:41;;;;;;;8.10;6.15;;;6.00;99.90;;;;;;5084247;28;20469;-78
2021/10/13 08:53:15;;;;;;;7.97;6.53;;;6.00;99.90;;;;;;5094071;28;20036;-79
2021/10/13 08:55:42;;;;;;;9.40;6.03;;;6.00;99.90;;;;;;5093021;28;20561;-78
2021/10/13 08:58:12;;;;;;;10.68;6.93;;;5.90;99.90;;;;;;5092078;28;20109;-78
2021/10/13 09:00:38;;;;;;;8.60;6.43;;;5.70;99.90;;;;;;5092582;28;20028;-79
2021/10/13 09:03:04;;;;;;;10.80;7.85;;;5.70;99.90;;;;;;5093930;28;20434;-79
2021/10/13 09:05:30;;;;;;;13.60;8.15;;;5.70;99.90;;;;;;5076125;28;20048;-78
2021/10/13 09:07:59;;;;;;;12.05;8.05;;;5.80;99.90;;;;;;5074776;28;20068;-80
2021/10/13 09:10:34;;;;;;;9.25;7.03;;;5.80;99.90;;;;;;5071399;28;20048;-79
2021/10/13 09:13:02;;;;;;;8.57;6.28;;;5.90;99.90;;;;;;5074951;28;20071;-79
2021/10/13 09:15:29;;;;;;;13.77;7.88;;;5.90;99.90;;;;;;5075077;28;20112;-79
2021/10/13 09:18:04;;;;;;;10.38;8.15;;;6.00;99.90;;;;;;5086122;28;20032;-79
2021/10/13 09:20:34;;;;;;;12.95;7.90;;;5.90;99.90;;;;;;5093866;28;20016;-79
2021/10/13 09:23:06;;;;;;;12.80;7.40;;;5.90;99.90;;;;;;5094003;28;20055;-79
2021/10/13 09:25:34;;;;;;;12.30;7.30;;;5.90;99.90;;;;;;5090945;28;20047;-79
2021/10/13 09:28:01;;;;;;;10.25;8.00;;;5.90;99.90;;;;;;5083211;28;20029;-79
2021/10/13 09:30:35;;;;;;;12.38;7.95;;;6.00;99.90;;;;;;5072670;28;20031;-79
2021/10/13 09:33:20;;;;;;;13.00;7.78;;;6.00;99.90;;;;;;5069414;28;20025;-79
2021/10/13 09:35:51;;;;;;;16.20;12.43;;;6.00;99.90;;;;;;5072013;28;20020;-78
2021/10/13 09:38:24;;;;;;;57.97;40.85;;;6.10;99.90;;;;;;5073468;28;20025;-78
2021/10/13 09:40:57;;;;;;;20.38;14.82;;;6.10;99.90;;;;;;5072468;28;20085;-79
2021/10/13 09:43:34;;;;;;;12.65;9.45;;;6.20;99.90;;;;;;5070228;28;20031;-78
2021/10/13 09:46:12;;;;;;;69.97;48.05;;;6.20;99.90;;;;;;5072890;28;20378;-79
2021/10/13 09:48:40;;;;;;;16.77;11.65;;;6.30;99.90;;;;;;5084258;28;20504;-78
2021/10/13 09:51:15;;;;;;;14.65;10.98;;;6.40;99.90;;;;;;5091808;28;20472;-78
2021/10/13 09:53:41;;;;;;;22.88;15.85;;;6.40;99.90;;;;;;5076625;28;20025;-78
2021/10/13 09:56:28;;;;;;;18.45;12.07;;;6.50;99.90;;;;;;5083877;28;20494;-79
2021/10/13 09:59:30;;;;;;;17.48;11.75;;;6.50;99.90;;;;;;5101836;28;20028;-78
2021/10/13 10:01:58;;;;;;;12.88;8.50;;;6.50;99.90;;;;;;5027150;28;20087;-78
2021/10/13 10:04:26;;;;;;;11.35;7.50;;;6.70;99.90;;;;;;5067057;28;20020;-78
2021/10/13 10:06:59;;;;;;;8.85;6.00;;;6.80;99.90;;;;;;5082011;28;20485;-78
2021/10/13 10:09:26;;;;;;;11.65;8.38;;;6.90;99.90;;;;;;5081900;28;20027;-78
2021/10/13 10:12:04;;;;;;;11.95;6.60;;;6.90;99.90;;;;;;5087611;28;20036;-79
2021/10/13 10:14:34;;;;;;;15.65;10.50;;;6.80;99.90;;;;;;5071748;28;20477;-77
2021/10/13 10:17:02;;;;;;;18.90;11.40;;;6.90;99.90;;;;;;5070677;28;20106;-79
2021/10/13 10:19:30;;;;;;;7.60;5.35;;;7.00;99.90;;;;;;5077709;28;20020;-78
2021/10/13 10:21:57;;;;;;;7.28;5.35;;;6.90;99.90;;;;;;5084294;28;20063;-78
2021/10/13 10:24:32;;;;;;;8.95;6.65;;;6.90;99.90;;;;;;5073201;28;20031;-79
2021/10/13 10:27:27;;;;;;;10.98;7.82;;;6.90;99.90;;;;;;5071555;28;20422;-79
2021/10/13 10:30:15;;;;;;;7.07;5.10;;;6.80;99.90;;;;;;5071914;28;20027;-79
2021/10/13 10:33:08;;;;;;;4.05;3.60;;;7.10;99.90;;;;;;5083394;28;20040;-78
2021/10/13 10:35:42;;;;;;;4.45;3.08;;;7.10;99.90;;;;;;5068018;28;20570;-79
2021/10/13 10:38:09;;;;;;;5.30;4.20;;;7.00;99.90;;;;;;5074564;28;20041;-78
2021/10/13 10:40:38;;;;;;;4.68;3.65;;;6.80;99.90;;;;;;5085785;28;20024;-78
2021/10/13 10:43:06;;;;;;;7.07;4.53;;;6.70;99.90;;;;;;5085338;28;20108;-78
2021/10/13 10:45:36;;;;;;;4.78;3.90;;;6.80;99.90;;;;;;5090955;28;20466;-78
2021/10/13 10:48:02;;;;;;;4.95;3.80;;;6.80;99.90;;;;;;5079552;28;20226;-78
2021/10/13 10:50:33;;;;;;;5.32;4.82;;;6.80;99.90;;;;;;5072354;28;20099;-78
2021/10/13 10:53:10;;;;;;;5.25;4.25;;;6.70;99.90;;;;;;5071287;28;20039;-78
2021/10/13 10:55:39;;;;;;;6.88;4.80;;;6.80;99.90;;;;;;5070539;28;20481;-78
2021/10/13 10:58:15;;;;;;;6.38;4.40;;;6.70;99.90;;;;;;5069348;28;20048;-78
2021/10/13 11:00:43;;;;;;;9.25;5.22;;;6.80;99.90;;;;;;5070754;28;20109;-79
2021/10/13 11:03:23;;;;;;;6.80;5.10;;;6.80;99.90;;;;;;5072402;28;20041;-79
2021/10/13 11:05:49;;;;;;;10.57;6.85;;;6.80;99.90;;;;;;5084578;28;20379;-79
2021/10/13 11:08:15;;;;;;;11.77;7.30;;;6.80;99.90;;;;;;5090422;28;20032;-78
2021/10/13 11:10:42;;;;;;;33.20;13.52;;;6.90;99.90;;;;;;5088926;28;20381;-78
2021/10/13 11:13:08;;;;;;;42.30;19.17;;;7.10;99.90;;;;;;5071743;28;20123;-78
2021/10/13 11:15:36;;;;;;;9.45;7.05;;;7.20;99.90;;;;;;5069370;28;20071;-78
2021/10/13 11:18:16;;;;;;;8.25;6.10;;;7.30;99.90;;;;;;5080290;28;20048;-78
2021/10/13 11:20:44;;;;;;;37.80;18.15;;;7.30;99.90;;;;;;5089771;28;20035;-79
2021/10/13 11:23:11;;;;;;;20.00;11.57;;;7.40;99.90;;;;;;5078306;28;20513;-78
2021/10/13 11:25:38;;;;;;;6.63;5.15;;;7.40;99.90;;;;;;5068971;28;20535;-78
2021/10/13 11:28:11;;;;;;;135.60;68.88;;;7.50;99.90;;;;;;5078354;28;20036;-79
2021/10/13 11:30:40;;;;;;;16.83;11.52;;;7.50;99.90;;;;;;5081494;28;20074;-79
2021/10/13 11:33:12;;;;;;;70.85;39.15;;;7.40;99.90;;;;;;5073005;28;20039;-78
2021/10/13 11:35:38;;;;;;;25.67;16.42;;;7.50;99.90;;;;;;5073391;28;20020;-78
2021/10/13 11:38:06;;;;;;;19.23;11.73;;;7.50;99.90;;;;;;5069693;28;20040;-79
2021/10/13 11:40:34;;;;;;;18.77;11.82;;;7.40;99.90;;;;;;5070670;28;20505;-80
2021/10/13 11:43:07;;;;;;;9.63;5.95;;;7.50;99.90;;;;;;5069347;28;20036;-80
2021/10/13 11:45:45;;;;;;;8.60;6.28;;;7.40;99.90;;;;;;5087068;28;20493;-79
2021/10/13 11:48:11;;;;;;;7.88;5.93;;;7.40;99.90;;;;;;5084005;28;20048;-80
2021/10/13 11:50:40;;;;;;;7.63;5.70;;;7.50;99.90;;;;;;5073269;28;20021;-79
2021/10/13 11:53:05;;;;;;;6.30;5.47;;;7.60;99.90;;;;;;5076175;28;20035;-80
2021/10/13 11:55:33;;;;;;;7.93;5.82;;;7.50;99.90;;;;;;5092957;28;20024;-79
2021/10/13 11:58:04;;;;;;;7.80;5.88;;;7.60;99.90;;;;;;5089300;28;20447;-79
2021/10/13 12:00:43;;;;;;;7.13;5.97;;;7.70;99.90;;;;;;5074361;28;20028;-79
2021/10/13 12:03:13;;;;;;;7.82;5.78;;;7.50;99.90;;;;;;5074774;28;20047;-80
2021/10/13 12:05:45;;;;;;;8.48;5.78;;;7.50;99.90;;;;;;5072895;28;20052;-80
2021/10/13 12:08:12;;;;;;;6.68;4.90;;;7.60;99.90;;;;;;5075143;28;20116;-80
2021/10/13 12:10:50;;;;;;;7.90;5.93;;;7.60;99.90;;;;;;5072350;28;20020;-80
2021/10/13 12:13:26;;;;;;;8.38;5.78;;;7.50;99.90;;;;;;5073352;28;20040;-80
2021/10/13 12:15:57;;;;;;;6.53;4.88;;;7.40;99.90;;;;;;5074976;28;20095;-80
2021/10/13 12:18:26;;;;;;;10.07;6.65;;;7.40;99.90;;;;;;5087861;28;20052;-80
2021/10/13 12:21:02;;;;;;;6.40;5.68;;;7.40;99.90;;;;;;5093597;28;20013;-80
2021/10/13 12:23:37;;;;;;;8.13;4.82;;;7.20;99.90;;;;;;5092231;28;20036;-80
2021/10/13 12:26:12;;;;;;;49.08;34.08;;;7.20;99.90;;;;;;5094340;28;20027;-80
2021/10/13 12:28:39;;;;;;;7.05;5.57;;;7.30;99.90;;;;;;5075333;28;20103;-80
2021/10/13 12:31:09;;;;;;;8.43;6.30;;;7.30;99.90;;;;;;5085180;28;20032;-79
2021/10/13 12:33:50;;;;;;;18.55;12.43;;;7.40;99.90;;;;;;5069887;28;20036;-80
2021/10/13 12:36:20;;;;;;;11.27;7.50;;;7.50;99.90;;;;;;5094694;28;20035;-79
2021/10/13 12:38:47;;;;;;;49.10;35.92;;;7.60;99.90;;;;;;5092448;28;20105;-80
2021/10/13 12:41:13;;;;;;;26.90;19.73;;;7.70;99.90;;;;;;5094148;28;20046;-79
2021/10/13 12:43:48;;;;;;;55.00;39.65;;;7.70;99.90;;;;;;5108791;28;20485;-79
2021/10/13 12:46:25;;;;;;;28.80;22.63;;;7.80;99.90;;;;;;5094498;28;20024;-79
2021/10/13 12:48:51;;;;;;;33.38;26.30;;;7.70;99.90;;;;;;5093276;28;20035;-80
2021/10/13 12:51:18;;;;;;;38.42;27.63;;;7.60;99.90;;;;;;5078844;28;20443;-80
2021/10/13 12:53:45;;;;;;;41.65;32.00;;;7.70;99.90;;;;;;5072530;28;20502;-79
2021/10/13 12:56:16;;;;;;;68.90;47.38;;;7.70;99.90;;;;;;5083480;28;20020;-79